createdAt,value
2022-12-11T00:03:15.801Z,98722.44
2022-12-11T00:09:21.425Z,98711.34
2022-12-11T00:15:23.363Z,98708.56
2022-12-11T00:21:26.443Z,98697.84
2022-12-11T00:27:28.604Z,98691.28
2022-12-11T00:33:30.606Z,98689.94
2022-12-11T00:39:44.635Z,98686.03
2022-12-11T00:45:48.002Z,98689.94
2022-12-11T00:51:49.965Z,98694.38
2022-12-11T00:57:52.434Z,98700.03
2022-12-11T01:03:54.382Z,98706.66
2022-12-11T01:10:14.521Z,98707.34
2022-12-11T01:16:16.570Z,98715.91
2022-12-11T01:22:18.503Z,98717.16
2022-12-11T01:28:20.406Z,98718.09
2022-12-11T01:34:22.356Z,98716.81
2022-12-11T01:40:24.394Z,98716.31
2022-12-11T01:46:38.702Z,98716.88
2022-12-11T01:52:43.215Z,98705.59
2022-12-11T01:58:54.770Z,98717.28
2022-12-11T02:04:57.157Z,98716.19
2022-12-11T02:11:26.443Z,98715.47
2022-12-11T02:18:14.706Z,98713.66
2022-12-11T02:25:05.078Z,98702.25
2022-12-11T02:31:29.826Z,98702.09
2022-12-11T02:37:35.744Z,98696.66
2022-12-11T02:43:39.308Z,98700.38
2022-12-11T02:49:45.558Z,98705.53
2022-12-11T02:55:52.985Z,98699.31
2022-12-11T03:01:55.102Z,98700.84
2022-12-11T03:07:57.329Z,98695.59
2022-12-11T03:14:04.027Z,98693.06
2022-12-11T03:20:38.424Z,98698.16
2022-12-11T03:26:46.465Z,98705.06
2022-12-11T03:33:15.388Z,98705.81
2022-12-11T03:39:32.056Z,98699.13
2022-12-11T03:45:34.977Z,98696.31
2022-12-11T03:51:38.939Z,98694.88
2022-12-11T03:57:40.916Z,98699.59
2022-12-11T04:03:42.905Z,98700.69
2022-12-11T04:09:50.801Z,98699.59
2022-12-11T04:15:52.744Z,98699.03
2022-12-11T04:22:32.876Z,98696.03
2022-12-11T04:28:35.951Z,98697.84
2022-12-11T04:34:37.858Z,98691.13
2022-12-11T04:40:40.204Z,98688.50
2022-12-11T04:46:42.122Z,98683.91
2022-12-11T04:52:50.869Z,98684.41
2022-12-11T04:58:52.733Z,98674.13
2022-12-11T05:04:54.614Z,98663.22
2022-12-11T05:10:57.499Z,98658.75
2022-12-11T05:17:00.425Z,98657.41
2022-12-11T05:23:02.367Z,98666.28
2022-12-11T05:29:04.312Z,98662.44
2022-12-11T05:35:06.648Z,98667.63
2022-12-11T05:41:08.938Z,98667.78
2022-12-11T05:47:13.915Z,98666.59
2022-12-11T05:53:15.769Z,98668.63
2022-12-11T05:59:24.530Z,98660.03
2022-12-11T06:05:26.395Z,98656.72
2022-12-11T06:11:37.126Z,98658.53
2022-12-11T06:17:39.052Z,98662.16
2022-12-11T06:23:44.825Z,98647.31
2022-12-11T06:29:49.724Z,98652.25
2022-12-11T06:36:07.140Z,98647.81
2022-12-11T06:42:09.054Z,98654.22
2022-12-11T06:48:14.617Z,98654.78
2022-12-11T06:54:19.678Z,98661.41
2022-12-11T07:00:21.823Z,98652.25
2022-12-11T07:06:24.827Z,98664.78
2022-12-11T07:18:50.171Z,98666.03
2022-12-11T07:24:54.881Z,98668.38
2022-12-11T07:30:56.738Z,98672.78
2022-12-11T07:37:03.497Z,98665.06
2022-12-11T07:43:05.376Z,98674.75
2022-12-11T07:49:13.594Z,98668.31
2022-12-11T07:55:15.633Z,98678.16
2022-12-11T08:01:23.898Z,98676.28
2022-12-11T08:07:25.800Z,98668.75
2022-12-11T08:13:32.776Z,98683.28
2022-12-11T08:19:34.677Z,98677.13
2022-12-11T08:25:40.204Z,98680.06
2022-12-11T08:31:42.528Z,98683.69
2022-12-11T08:37:44.468Z,98673.63
2022-12-11T08:43:46.764Z,98672.69
2022-12-11T08:49:48.851Z,98672.53
2022-12-11T08:55:50.746Z,98672.78
2022-12-11T09:08:13.696Z,98672.75
2022-12-11T09:14:24.647Z,98668.38
2022-12-11T09:20:26.835Z,98676.25
2022-12-11T09:26:34.901Z,98672.22
2022-12-11T09:32:37.351Z,98675.81
2022-12-11T09:38:39.570Z,98670.91
2022-12-11T09:44:42.349Z,98664.09
2022-12-11T09:50:51.550Z,98659.53
2022-12-11T09:57:07.653Z,98648.91
2022-12-11T10:03:45.660Z,98641.41
2022-12-11T10:10:18.491Z,98644.75
2022-12-11T10:16:50.858Z,98634.00
2022-12-11T10:22:54.876Z,98630.94
2022-12-11T10:29:01.019Z,98636.84
2022-12-11T10:35:16.693Z,98647.25
2022-12-11T10:41:24.903Z,98638.59
2022-12-11T10:47:27.644Z,98645.03
2022-12-11T10:53:32.109Z,98647.75
2022-12-11T10:59:37.924Z,98649.50
2022-12-11T11:05:41.004Z,98644.47
2022-12-11T11:11:57.141Z,98634.19
2022-12-11T11:18:12.755Z,98629.78
2022-12-11T11:24:41.195Z,98621.19
2022-12-11T11:31:12.224Z,98618.88
2022-12-11T11:37:36.151Z,98610.56
2022-12-11T11:44:02.897Z,98600.31
2022-12-11T11:50:34.191Z,98590.25
2022-12-11T11:56:37.939Z,98584.63
2022-12-11T12:02:41.502Z,98591.88
2022-12-11T12:08:58.307Z,98589.75
2022-12-11T12:15:21.938Z,98596.53
2022-12-11T12:21:35.515Z,98596.53
2022-12-11T12:28:12.269Z,98599.00
2022-12-11T12:34:51.911Z,98578.75
2022-12-11T12:41:35.811Z,98581.34
2022-12-11T12:47:38.988Z,98578.03
2022-12-11T12:53:46.790Z,98577.28
2022-12-11T12:59:55.591Z,98575.22
2022-12-11T13:06:10.233Z,98570.94
2022-12-11T13:12:29.966Z,98578.69
2022-12-11T13:18:39.299Z,98571.25
2022-12-11T13:25:16.872Z,98568.28
2022-12-11T13:31:18.774Z,98567.59
2022-12-11T13:37:43.451Z,98577.66
2022-12-11T13:43:49.562Z,98588.72
2022-12-11T13:50:22.965Z,98589.88
2022-12-11T13:56:24.876Z,98586.84
2022-12-11T14:02:45.358Z,98598.16
2022-12-11T14:08:55.465Z,98599.50
2022-12-11T14:15:14.000Z,98600.38
2022-12-11T14:21:23.512Z,98606.16
2022-12-11T14:27:34.572Z,98609.91
2022-12-11T14:33:43.451Z,98611.06
2022-12-11T14:40:22.989Z,98607.00
2022-12-11T14:46:54.425Z,98606.50
2022-12-11T14:53:02.632Z,98604.34
2022-12-11T14:59:18.885Z,98602.59
2022-12-11T15:05:21.736Z,98605.84
2022-12-11T15:11:30.152Z,98605.66
2022-12-11T15:17:34.534Z,98604.75
2022-12-11T15:23:55.918Z,98609.41
2022-12-11T15:29:58.059Z,98625.75
2022-12-11T15:36:40.256Z,98630.97
2022-12-11T15:42:42.638Z,98637.94
2022-12-11T15:48:57.664Z,98640.13
2022-12-11T15:54:59.535Z,98642.09
2022-12-11T16:01:26.877Z,98643.91
2022-12-11T16:07:29.008Z,98640.44
2022-12-11T16:13:31.025Z,98637.81
2022-12-11T16:19:38.255Z,98634.91
2022-12-11T16:25:42.165Z,98641.13
2022-12-11T16:31:50.295Z,98638.22
2022-12-11T16:37:53.701Z,98630.31
2022-12-11T16:44:06.626Z,98632.06
2022-12-11T16:50:09.478Z,98626.31
2022-12-11T16:56:20.793Z,98631.53
2022-12-11T17:02:22.818Z,98624.06
2022-12-11T17:08:25.698Z,98630.81
2022-12-11T17:14:28.295Z,98632.75
2022-12-11T17:20:30.182Z,98622.16
2022-12-11T17:26:41.901Z,98626.56
2022-12-11T17:32:48.619Z,98621.50
2022-12-11T17:38:59.924Z,98625.28
2022-12-11T17:45:02.152Z,98638.00
2022-12-11T17:51:07.153Z,98636.34
2022-12-11T17:57:09.063Z,98630.34
2022-12-11T18:03:11.724Z,98635.38
2022-12-11T18:09:25.868Z,98641.28
2022-12-11T18:15:27.907Z,98635.47
2022-12-11T18:21:34.396Z,98643.22
2022-12-11T18:27:36.298Z,98645.94
2022-12-11T18:33:40.680Z,98652.72
2022-12-11T18:39:42.582Z,98655.66
2022-12-11T18:45:45.549Z,98650.41
2022-12-11T18:51:49.382Z,98651.38
2022-12-11T18:57:51.289Z,98659.00
2022-12-11T19:04:02.427Z,98655.19
2022-12-11T19:10:07.079Z,98656.00
2022-12-11T19:16:25.850Z,98658.78
2022-12-11T19:22:40.140Z,98665.91
2022-12-11T19:28:42.739Z,98665.31
2022-12-11T19:34:44.632Z,98661.59
2022-12-11T19:40:46.510Z,98662.19
2022-12-11T19:46:48.458Z,98674.16
2022-12-11T19:52:50.408Z,98671.78
2022-12-11T19:58:54.629Z,98667.47
2022-12-11T20:04:56.521Z,98660.56
2022-12-11T20:11:12.819Z,98659.97
2022-12-11T20:17:17.869Z,98663.50
2022-12-11T20:23:19.837Z,98653.66
2022-12-11T20:29:21.743Z,98656.53
2022-12-11T20:35:29.807Z,98658.03
2022-12-11T20:41:31.693Z,98663.97
2022-12-11T20:47:33.596Z,98665.22
2022-12-11T20:53:36.963Z,98668.38
2022-12-11T20:59:39.005Z,98665.56
2022-12-11T21:05:53.751Z,98665.78
2022-12-11T21:11:58.239Z,98665.56
2022-12-11T21:18:00.113Z,98660.13
2022-12-11T21:24:07.108Z,98660.13
2022-12-11T21:30:15.368Z,98660.94
2022-12-11T21:36:17.981Z,98672.91
2022-12-11T21:42:19.862Z,98667.25
2022-12-11T21:48:21.745Z,98663.94
2022-12-11T21:54:23.848Z,98670.78
2022-12-11T22:00:25.817Z,98656.31
2022-12-11T22:06:27.736Z,98660.22
2022-12-11T22:12:29.703Z,98666.78
2022-12-11T22:18:31.741Z,98658.56
2022-12-11T22:24:33.623Z,98657.13
2022-12-11T22:30:36.698Z,98656.66
2022-12-11T22:36:38.648Z,98659.41
2022-12-11T22:42:40.637Z,98666.50
2022-12-11T22:48:42.721Z,98663.66
2022-12-11T22:54:44.880Z,98657.00
2022-12-11T23:00:47.012Z,98658.81
2022-12-11T23:06:48.993Z,98658.41
2022-12-11T23:12:51.202Z,98664.03
2022-12-11T23:18:54.258Z,98665.56
2022-12-11T23:24:59.380Z,98669.97
2022-12-11T23:31:01.885Z,98673.28
2022-12-11T23:37:04.149Z,98673.63
2022-12-11T23:43:06.014Z,98672.53
2022-12-11T23:49:17.326Z,98677.53
2022-12-11T23:55:19.456Z,98672.19
